Time;durP1;ratioP1;P1;durP2;ratioP2;P2;SDS_P1;SDS_P2;PMS_P1;PMS_P2;Temp;Humidity;BMP_temperature;BMP_pressure;BME280_temperature;BME280_humidity;BME280_pressure;Samples;Min_cycle;Max_cycle;Signal;HPM_P1;HPM_P2
2023/03/24 00:00:12;;;;;;;3.33;2.92;;;;;;;11.19;100.00;97564.47;4168404;28;20696;-50
2023/03/24 00:02:15;;;;;;;4.75;3.38;;;;;;;11.25;100.00;97554.31;4168018;28;20204;-49
2023/03/24 00:04:17;;;;;;;4.53;3.25;;;;;;;11.16;100.00;97553.22;4173766;28;20311;-48
2023/03/24 00:06:21;;;;;;;4.82;2.95;;;;;;;11.09;100.00;97545.31;4172377;28;21068;-49
2023/03/24 00:08:23;;;;;;;5.00;3.80;;;;;;;11.17;100.00;97542.00;4168241;28;20216;-49
2023/03/24 00:10:29;;;;;;;3.55;3.13;;;;;;;11.19;100.00;97541.75;4174011;28;20232;-49
2023/03/24 00:12:31;;;;;;;3.90;3.60;;;;;;;11.14;100.00;97534.38;4166684;28;20698;-48
2023/03/24 00:14:34;;;;;;;3.20;2.90;;;;;;;11.09;100.00;97528.91;4154216;28;20595;-48
2023/03/24 00:16:37;;;;;;;3.88;3.58;;;;;;;11.12;100.00;97528.31;4183470;28;20679;-49
2023/03/24 00:18:39;;;;;;;5.20;3.25;;;;;;;11.14;100.00;97517.94;4168629;28;20212;-50
2023/03/24 00:20:41;;;;;;;3.28;3.03;;;;;;;11.10;100.00;97521.50;4202414;28;20211;-49
2023/03/24 00:22:48;;;;;;;3.60;3.30;;;;;;;11.20;100.00;97519.56;4172003;28;20270;-49
2023/03/24 00:24:50;;;;;;;4.13;3.17;;;;;;;11.14;100.00;97517.94;4167067;28;20230;-49
2023/03/24 00:26:56;;;;;;;2.83;2.63;;;;;;;11.11;100.00;97512.19;4159453;28;20236;-49
2023/03/24 00:28:58;;;;;;;3.40;3.13;;;;;;;11.05;100.00;97507.84;4167664;28;20228;-49
2023/03/24 00:31:03;;;;;;;3.63;3.33;;;;;;;10.97;100.00;97514.69;4182765;28;20207;-49
2023/03/24 00:33:04;;;;;;;4.30;4.00;;;;;;;10.93;100.00;97508.13;4170585;28;20212;-49
2023/03/24 00:35:08;;;;;;;4.65;4.22;;;;;;;10.94;100.00;97507.03;4165240;28;20230;-49
2023/03/24 00:37:10;;;;;;;3.83;3.58;;;;;;;10.97;100.00;97508.41;4168844;28;20239;-49
2023/03/24 00:39:12;;;;;;;4.03;3.72;;;;;;;10.96;100.00;97507.56;4184220;28;20674;-49
2023/03/24 00:41:16;;;;;;;4.13;3.83;;;;;;;10.98;100.00;97502.63;4168971;28;20237;-49
2023/03/24 00:43:18;;;;;;;4.28;3.97;;;;;;;11.07;100.00;97514.69;4170628;28;20281;-49
2023/03/24 00:45:24;;;;;;;3.17;2.88;;;;;;;11.01;100.00;97510.31;4183359;28;20646;-50
2023/03/24 00:47:25;;;;;;;3.13;2.92;;;;;;;11.00;100.00;97511.41;4153410;28;20212;-49
2023/03/24 00:49:43;;;;;;;4.22;3.92;;;;;;;11.02;100.00;97513.84;4152214;28;20205;-50
2023/03/24 00:51:45;;;;;;;4.30;3.90;;;;;;;11.08;100.00;97508.09;4171858;28;20212;-49
2023/03/24 00:53:47;;;;;;;5.68;2.97;;;;;;;11.05;100.00;97497.69;4200978;28;20254;-50
2023/03/24 00:55:52;;;;;;;10.98;4.07;;;;;;;11.03;100.00;97499.88;4170897;28;20243;-49
2023/03/24 00:57:54;;;;;;;4.95;4.55;;;;;;;11.06;100.00;97491.13;4184023;28;20287;-49
2023/03/24 00:59:56;;;;;;;3.42;3.22;;;;;;;10.99;100.00;97487.88;4175411;28;20247;-49
2023/03/24 01:01:58;;;;;;;7.45;3.95;;;;;;;10.99;100.00;97481.56;4158190;28;20300;-49
2023/03/24 01:04:01;;;;;;;3.42;3.20;;;;;;;11.03;100.00;97491.69;4199832;28;20318;-49
2023/03/24 01:06:03;;;;;;;3.25;3.05;;;;;;;10.96;100.00;97488.41;4169159;28;20211;-49
2023/03/24 01:08:06;;;;;;;4.35;3.85;;;;;;;10.99;100.00;97492.53;4166454;28;20247;-49
2023/03/24 01:10:12;;;;;;;6.32;3.90;;;;;;;10.91;100.00;97477.47;4175284;28;20235;-49
2023/03/24 01:12:13;;;;;;;3.97;3.60;;;;;;;10.93;100.00;97472.56;4168135;28;20935;-49
2023/03/24 01:14:15;;;;;;;3.95;3.65;;;;;;;11.00;100.00;97488.69;4168820;28;20340;-49
2023/03/24 01:16:17;;;;;;;4.47;4.07;;;;;;;11.10;100.00;97494.94;4168980;28;20287;-50
2023/03/24 01:18:20;;;;;;;4.50;4.00;;;;;;;11.20;100.00;97473.03;4170797;28;20197;-49
2023/03/24 01:20:23;;;;;;;4.18;3.88;;;;;;;11.30;100.00;97474.91;4169796;28;20204;-49
2023/03/24 01:22:29;;;;;;;5.05;4.50;;;;;;;11.29;100.00;97476.81;4167493;28;20231;-49
2023/03/24 01:24:31;;;;;;;4.68;4.28;;;;;;;11.30;100.00;97472.16;4198222;28;20230;-49
2023/03/24 01:26:33;;;;;;;3.40;3.10;;;;;;;11.31;100.00;97469.13;4173506;28;20279;-50
2023/03/24 01:28:39;;;;;;;4.15;3.85;;;;;;;11.29;100.00;97470.50;4168731;28;20235;-50
2023/03/24 01:30:42;;;;;;;3.63;3.25;;;;;;;11.36;100.00;97469.09;4167712;28;20216;-49
2023/03/24 01:32:44;;;;;;;5.15;4.75;;;;;;;11.26;100.00;97463.69;4171999;28;20216;-49
2023/03/24 01:34:45;;;;;;;5.30;3.55;;;;;;;11.30;100.00;97467.50;4189554;28;20689;-50
2023/03/24 01:36:47;;;;;;;3.58;3.28;;;;;;;11.32;100.00;97459.00;4157505;28;20300;-49
2023/03/24 01:38:49;;;;;;;3.80;3.50;;;;;;;11.46;100.00;97455.38;4150455;28;20501;-50
2023/03/24 01:40:52;;;;;;;8.68;3.10;;;;;;;11.44;100.00;97446.59;4187105;28;20681;-50
2023/03/24 01:42:55;;;;;;;4.32;3.92;;;;;;;11.58;100.00;97442.19;4166977;28;20239;-50
2023/03/24 01:45:00;;;;;;;3.80;3.50;;;;;;;11.62;100.00;97436.94;4166493;28;20236;-49
2023/03/24 01:47:05;;;;;;;5.60;5.22;;;;;;;11.66;100.00;97436.13;4171376;28;20757;-49
2023/03/24 01:49:07;;;;;;;4.10;3.80;;;;;;;11.87;100.00;97429.41;4166075;28;20285;-49
2023/03/24 01:51:15;;;;;;;5.53;3.05;;;;;;;11.90;100.00;97428.03;4149581;28;20206;-50
2023/03/24 01:53:17;;;;;;;8.10;4.80;;;;;;;11.85;100.00;97426.09;4167253;28;20199;-49
2023/03/24 01:55:19;;;;;;;6.18;3.97;;;;;;;11.88;100.00;97409.09;4166466;28;20267;-49
2023/03/24 01:57:27;;;;;;;4.43;3.20;;;;;;;11.85;100.00;97404.19;4175140;28;20234;-50
2023/03/24 01:59:30;;;;;;;3.80;3.40;;;;;;;11.88;100.00;97389.91;4172817;28;20635;-50
2023/03/24 02:01:32;;;;;;;4.10;3.70;;;;;;;11.87;100.00;97390.19;4166587;28;20728;-50
2023/03/24 02:03:37;;;;;;;3.28;3.08;;;;;;;11.79;100.00;97401.78;4169009;28;20219;-49
2023/03/24 02:05:40;;;;;;;5.25;3.47;;;;;;;11.95;100.00;97387.66;4199690;28;20229;-50
2023/03/24 02:07:52;;;;;;;4.20;3.80;;;;;;;11.99;100.00;97394.22;4173148;28;20317;-51
2023/03/24 02:09:54;;;;;;;3.78;3.47;;;;;;;11.97;100.00;97390.94;4168874;28;20701;-49
2023/03/24 02:11:55;;;;;;;3.90;3.22;;;;;;;11.92;100.00;97399.19;4169537;28;20244;-49
2023/03/24 02:13:57;;;;;;;4.20;3.90;;;;;;;11.97;100.00;97392.88;4172072;28;20263;-49
2023/03/24 02:16:23;;;;;;;3.92;3.30;;;;;;;11.90;100.00;97406.88;4170104;28;20204;-50
2023/03/24 02:18:28;;;;;;;3.55;3.25;;;;;;;11.94;100.00;97402.50;4170323;28;20592;-50
2023/03/24 02:20:50;;;;;;;6.63;4.18;;;;;;;11.96;100.00;97410.44;4202655;28;20730;-49
2023/03/24 02:23:30;;;;;;;3.95;3.65;;;;;;;11.88;100.00;97403.63;4141558;28;20255;-50
2023/03/24 02:25:40;;;;;;;5.45;4.50;;;;;;;11.86;100.00;97397.63;4168875;28;20238;-49
2023/03/24 02:27:52;;;;;;;4.93;3.55;;;;;;;12.06;100.00;97389.25;4175606;28;20323;-49
2023/03/24 02:30:14;;;;;;;3.85;3.53;;;;;;;12.07;100.00;97395.53;4160229;28;20295;-49
2023/03/24 02:32:31;;;;;;;3.97;3.65;;;;;;;12.19;100.00;97387.75;4173741;28;20231;-49
2023/03/24 02:34:45;;;;;;;4.43;3.65;;;;;;;12.32;100.00;97390.66;4169676;28;20237;-49
2023/03/24 02:37:01;;;;;;;4.28;3.97;;;;;;;12.39;100.00;97393.88;4170269;28;20685;-48
2023/03/24 02:39:24;;;;;;;4.30;4.00;;;;;;;12.38;100.00;97392.22;4186535;28;20282;-49
2023/03/24 02:41:32;;;;;;;4.80;4.43;;;;;;;12.37;100.00;97390.59;4169936;28;20211;-49
2023/03/24 02:43:43;;;;;;;4.88;4.47;;;;;;;12.40;100.00;97391.94;4176368;28;20286;-49
2023/03/24 02:46:13;;;;;;;4.60;4.18;;;;;;;12.38;100.00;97392.22;4170022;28;20330;-49
2023/03/24 02:48:21;;;;;;;6.28;4.30;;;;;;;12.33;100.00;97388.72;4169346;28;20259;-49
2023/03/24 02:50:31;;;;;;;16.63;3.80;;;;;;;12.51;100.00;97401.72;4171336;28;20657;-49
2023/03/24 02:52:38;;;;;;;4.85;4.03;;;;;;;12.56;100.00;97394.25;4185513;28;20239;-50
2023/03/24 02:54:49;;;;;;;5.78;4.90;;;;;;;12.51;100.00;97397.03;4185186;28;20254;-49
2023/03/24 02:57:07;;;;;;;4.95;4.55;;;;;;;12.45;100.00;97398.19;4174396;28;20212;-49
2023/03/24 02:59:21;;;;;;;9.48;4.80;;;;;;;12.35;100.00;97398.28;4175849;28;20204;-49
2023/03/24 03:01:30;;;;;;;6.30;5.80;;;;;;;12.30;100.00;97406.56;4160153;28;20224;-49
2023/03/24 03:03:40;;;;;;;6.10;4.70;;;;;;;12.21;100.00;97386.34;4171151;28;20206;-49
2023/03/24 03:05:50;;;;;;;9.43;5.32;;;;;;;12.27;100.00;97401.66;4169245;28;20213;-49
2023/03/24 03:07:54;;;;;;;6.55;6.05;;;;;;;12.20;100.00;97395.69;4177118;28;20254;-49
2023/03/24 03:09:59;;;;;;;6.72;5.95;;;;;;;12.17;100.00;97398.19;4185758;28;20212;-49
2023/03/24 03:12:03;;;;;;;6.50;5.57;;;;;;;12.14;100.00;97394.09;4167140;28;20368;-49
2023/03/24 03:14:09;;;;;;;6.93;6.22;;;;;;;12.09;100.00;97410.59;4177535;28;20713;-50
2023/03/24 03:16:37;;;;;;;6.70;6.13;;;;;;;12.19;100.00;97404.19;4175940;28;20911;-50
2023/03/24 03:18:42;;;;;;;6.68;6.07;;;;;;;12.14;100.00;97391.34;4169803;28;20195;-50
2023/03/24 03:20:52;;;;;;;6.40;5.90;;;;;;;12.09;100.00;97402.34;4155727;28;20690;-50
2023/03/24 03:22:59;;;;;;;6.28;5.80;;;;;;;12.12;100.00;97399.03;4167535;28;20631;-50
2023/03/24 03:25:02;;;;;;;7.28;6.68;;;;;;;12.13;100.00;97389.72;4185120;28;20245;-50
2023/03/24 03:27:07;;;;;;;6.40;5.90;;;;;;;12.15;100.00;97409.44;4169196;28;20240;-50
2023/03/24 03:29:20;;;;;;;6.75;6.15;;;;;;;12.11;100.00;97402.09;4170189;28;20670;-50
2023/03/24 03:31:29;;;;;;;12.98;6.45;;;;;;;12.08;100.00;97414.44;4186286;28;20207;-50
2023/03/24 03:33:38;;;;;;;7.38;6.88;;;;;;;12.08;100.00;97408.13;4176636;28;20210;-49
2023/03/24 03:35:52;;;;;;;8.05;7.45;;;;;;;12.04;100.00;97418.84;4168372;28;20247;-51
2023/03/24 03:38:09;;;;;;;8.10;7.30;;;;;;;12.03;100.00;97430.91;4201877;28;20696;-49
2023/03/24 03:40:42;;;;;;;7.28;6.78;;;;;;;12.01;100.00;97429.56;4203831;28;20313;-49
2023/03/24 03:42:44;;;;;;;14.30;7.65;;;;;;;11.98;100.00;97430.94;4159817;28;20298;-50
2023/03/24 03:44:46;;;;;;;8.15;7.57;;;;;;;11.95;100.00;97431.53;4167013;28;20243;-50
2023/03/24 03:46:47;;;;;;;9.38;7.60;;;;;;;11.97;100.00;97428.50;4199921;28;20250;-50
2023/03/24 03:48:49;;;;;;;7.82;7.28;;;;;;;11.96;100.00;97435.09;4182863;28;20406;-50
2023/03/24 03:50:53;;;;;;;9.15;8.30;;;;;;;11.97;100.00;97439.47;4169589;28;20212;-49
2023/03/24 03:53:14;;;;;;;8.50;7.63;;;;;;;11.97;100.00;97434.00;4157140;28;20293;-49
2023/03/24 03:55:16;;;;;;;7.70;7.10;;;;;;;11.93;100.00;97438.41;4171605;28;20258;-52
2023/03/24 03:57:18;;;;;;;10.07;7.03;;;;;;;11.87;100.00;97443.13;4190759;28;20665;-50
2023/03/24 03:59:24;;;;;;;8.45;7.72;;;;;;;11.88;100.00;97442.00;4183624;28;20222;-50
2023/03/24 04:01:28;;;;;;;7.03;6.13;;;;;;;11.90;100.00;97445.28;4168579;28;20286;-49
2023/03/24 04:03:52;;;;;;;8.73;7.30;;;;;;;11.85;100.00;97452.72;4168715;28;20208;-50
2023/03/24 04:06:00;;;;;;;7.80;7.15;;;;;;;11.87;100.00;97450.50;4199903;28;20282;-49
2023/03/24 04:08:25;;;;;;;7.80;7.05;;;;;;;11.87;100.00;97454.06;4168732;28;20199;-49
2023/03/24 04:10:59;;;;;;;9.68;8.77;;;;;;;11.86;100.00;97457.91;4170686;28;20207;-49
2023/03/24 04:13:30;;;;;;;7.80;7.20;;;;;;;11.89;100.00;97462.81;4154431;28;20303;-50
2023/03/24 04:16:19;;;;;;;8.38;7.75;;;;;;;11.83;100.00;97461.22;4147461;28;20291;-51
2023/03/24 04:19:00;;;;;;;8.98;7.97;;;;;;;11.86;100.00;97471.63;4123542;28;20259;-50
2023/03/24 04:21:11;;;;;;;8.65;8.05;;;;;;;11.86;100.00;97473.53;4163715;28;20299;-51
2023/03/24 04:23:25;;;;;;;6.35;5.72;;;;;;;11.86;100.00;97476.28;4168831;28;20215;-50
2023/03/24 04:25:48;;;;;;;7.13;6.43;;;;;;;11.80;100.00;97470.03;4168585;28;20212;-51
2023/03/24 04:28:03;;;;;;;7.47;6.97;;;;;;;11.83;100.00;97474.91;4168100;28;20950;-50
2023/03/24 04:30:09;;;;;;;8.13;7.30;;;;;;;11.81;100.00;97474.41;4172339;28;20696;-50
2023/03/24 04:32:23;;;;;;;8.48;7.78;;;;;;;11.76;100.00;97460.72;4183509;28;20200;-51
2023/03/24 04:34:32;;;;;;;8.90;8.10;;;;;;;11.74;100.00;97462.94;4184404;28;20372;-50
2023/03/24 04:36:41;;;;;;;8.45;7.75;;;;;;;11.76;100.00;97466.19;4172724;28;20244;-49
2023/03/24 04:38:47;;;;;;;8.40;7.82;;;;;;;11.74;100.00;97457.44;4184579;28;20581;-51
2023/03/24 04:40:50;;;;;;;8.98;8.27;;;;;;;11.71;100.00;97458.00;4167635;28;20640;-50
2023/03/24 04:42:54;;;;;;;9.70;8.77;;;;;;;11.71;100.00;97452.50;4163124;28;20308;-51
2023/03/24 04:44:56;;;;;;;8.88;8.07;;;;;;;11.67;100.00;97445.97;4171300;28;20763;-49
2023/03/24 04:47:01;;;;;;;8.57;7.78;;;;;;;11.74;100.00;97446.47;4169729;28;20223;-50
2023/03/24 04:49:09;;;;;;;8.88;8.07;;;;;;;11.71;100.00;97447.03;4165464;28;20212;-51
2023/03/24 04:51:11;;;;;;;8.13;7.53;;;;;;;11.68;100.00;97433.91;4165771;28;20208;-53
2023/03/24 04:53:13;;;;;;;8.82;8.23;;;;;;;11.70;100.00;97423.47;4162610;28;20219;-49
2023/03/24 04:55:31;;;;;;;7.47;6.90;;;;;;;11.71;100.00;97422.38;4166061;28;20232;-50
2023/03/24 04:57:32;;;;;;;8.75;8.15;;;;;;;11.70;100.00;97412.50;4165479;28;20216;-49
2023/03/24 04:59:34;;;;;;;8.13;7.35;;;;;;;11.68;100.00;97422.13;4151483;28;20228;-51
2023/03/24 05:01:36;;;;;;;8.57;7.78;;;;;;;11.66;100.00;97416.94;4169256;28;20238;-52
2023/03/24 05:03:51;;;;;;;8.45;7.50;;;;;;;11.63;100.00;97412.00;4169595;28;20235;-51
2023/03/24 05:05:53;;;;;;;7.30;6.80;;;;;;;11.60;100.00;97407.13;4169438;28;20204;-51
2023/03/24 05:07:59;;;;;;;6.57;5.85;;;;;;;11.66;100.00;97405.97;4185386;28;20316;-51
2023/03/24 05:10:00;;;;;;;6.40;5.90;;;;;;;11.62;100.00;97413.13;4168561;28;20228;-49
2023/03/24 05:12:02;;;;;;;10.43;6.63;;;;;;;11.61;100.00;97407.91;4153344;28;20283;-49
2023/03/24 05:14:04;;;;;;;6.63;6.00;;;;;;;11.61;100.00;97403.28;4165498;28;20227;-50
2023/03/24 05:16:06;;;;;;;8.10;6.30;;;;;;;11.66;100.00;97405.16;4168120;28;20215;-50
2023/03/24 05:18:09;;;;;;;6.78;6.28;;;;;;;11.66;100.00;97400.50;4167372;28;20777;-49
2023/03/24 05:20:11;;;;;;;7.05;5.95;;;;;;;11.65;100.00;97401.56;4197320;28;20264;-49
2023/03/24 05:22:13;;;;;;;7.15;6.55;;;;;;;11.67;100.00;97407.63;4165524;28;20247;-50
2023/03/24 05:24:15;;;;;;;6.32;5.78;;;;;;;11.61;100.00;97403.28;4167774;28;20259;-49
2023/03/24 05:26:17;;;;;;;5.55;5.13;;;;;;;11.62;100.00;97404.91;4151762;28;20212;-51
2023/03/24 05:28:19;;;;;;;6.13;5.63;;;;;;;11.65;100.00;97406.25;4180938;28;20265;-51
2023/03/24 05:30:20;;;;;;;6.38;5.88;;;;;;;11.70;100.00;97404.28;4181513;28;20216;-49
2023/03/24 05:32:23;;;;;;;6.57;6.07;;;;;;;11.65;100.00;97409.81;4169152;28;21825;-51
2023/03/24 05:34:24;;;;;;;7.43;6.72;;;;;;;11.66;100.00;97405.97;4175604;28;20227;-50
2023/03/24 05:36:26;;;;;;;5.88;5.00;;;;;;;11.63;100.00;97417.50;4172760;28;20204;-49
2023/03/24 05:38:28;;;;;;;6.10;4.95;;;;;;;11.68;100.00;97414.72;4158958;28;20259;-51
2023/03/24 05:40:30;;;;;;;5.30;4.95;;;;;;;11.70;100.00;97417.19;4176052;28;20243;-50
2023/03/24 05:42:32;;;;;;;6.10;5.25;;;;;;;11.66;100.00;97411.47;4177696;28;20211;-51
2023/03/24 05:44:34;;;;;;;6.22;5.72;;;;;;;11.69;100.00;97413.63;4166646;28;20311;-49
2023/03/24 05:46:36;;;;;;;6.13;5.63;;;;;;;11.70;100.00;97417.19;4169324;28;20270;-50
2023/03/24 05:48:38;;;;;;;7.72;7.10;;;;;;;11.74;100.00;97412.75;4169463;28;20284;-49
2023/03/24 05:50:40;;;;;;;6.97;6.28;;;;;;;11.76;100.00;97416.88;4173869;28;20204;-49
2023/03/24 05:52:42;;;;;;;5.57;5.18;;;;;;;11.78;100.00;97417.38;4199192;28;20326;-49
2023/03/24 05:54:44;;;;;;;6.45;5.97;;;;;;;11.80;100.00;97425.34;4171567;28;20233;-50
2023/03/24 05:56:47;;;;;;;7.28;6.78;;;;;;;11.83;100.00;97422.03;4191189;28;20310;-51
2023/03/24 05:58:54;;;;;;;7.50;6.90;;;;;;;11.78;100.00;97422.88;4151996;28;20292;-50
2023/03/24 06:01:05;;;;;;;6.55;6.05;;;;;;;11.80;100.00;97417.94;4167895;28;20294;-50
2023/03/24 06:03:12;;;;;;;6.95;6.35;;;;;;;11.79;100.00;97427.28;4170208;28;20728;-52
2023/03/24 06:05:19;;;;;;;7.22;6.70;;;;;;;11.77;100.00;97418.50;4183293;28;20232;-53
2023/03/24 06:07:25;;;;;;;6.82;6.25;;;;;;;11.83;100.00;97422.03;4175801;28;20253;-51
2023/03/24 06:09:36;;;;;;;7.70;7.10;;;;;;;11.80;100.00;97422.59;4168494;28;20279;-50
2023/03/24 06:11:44;;;;;;;7.03;6.55;;;;;;;11.83;100.00;97425.59;4197691;28;21054;-51
2023/03/24 06:13:49;;;;;;;7.30;6.70;;;;;;;11.81;100.00;97438.75;4199935;28;20227;-51
2023/03/24 06:15:53;;;;;;;7.68;6.63;;;;;;;11.80;100.00;97434.38;4176832;28;20207;-50
2023/03/24 06:18:14;;;;;;;6.70;6.25;;;;;;;11.80;100.00;97428.91;4164980;28;22445;-49
2023/03/24 06:20:49;;;;;;;7.15;6.65;;;;;;;11.87;100.00;97437.63;4185732;28;20208;-49
2023/03/24 06:23:05;;;;;;;7.95;6.68;;;;;;;11.83;100.00;97436.53;4153515;28;20218;-49
2023/03/24 06:25:15;;;;;;;7.78;7.07;;;;;;;11.87;100.00;97434.06;4169409;28;20235;-49
2023/03/24 06:27:20;;;;;;;7.13;6.53;;;;;;;11.86;100.00;97433.25;4204007;28;20661;-49
2023/03/24 06:29:22;;;;;;;8.45;6.57;;;;;;;11.91;100.00;97435.94;4170658;28;20231;-50
2023/03/24 06:31:24;;;;;;;7.30;6.70;;;;;;;11.89;100.00;97432.66;4201390;28;20240;-49
2023/03/24 06:33:25;;;;;;;5.70;5.25;;;;;;;11.89;100.00;97432.66;4169865;28;20215;-48
2023/03/24 06:35:27;;;;;;;6.93;6.32;;;;;;;11.83;100.00;97433.81;4169526;28;20211;-49
2023/03/24 06:37:32;;;;;;;6.85;6.35;;;;;;;11.79;100.00;97430.00;4152990;28;20213;-48
2023/03/24 06:39:34;;;;;;;5.22;4.82;;;;;;;11.78;100.00;97428.34;4171609;28;20235;-49
2023/03/24 06:41:36;;;;;;;5.80;5.38;;;;;;;11.80;100.00;97433.56;4174718;28;20200;-48
2023/03/24 06:43:37;;;;;;;5.90;5.40;;;;;;;11.84;100.00;97435.44;4170004;28;20316;-49
2023/03/24 06:45:39;;;;;;;5.25;4.85;;;;;;;11.86;100.00;97438.75;4169116;28;20292;-48
2023/03/24 06:47:41;;;;;;;4.53;4.22;;;;;;;11.88;100.00;97428.31;4157289;28;20707;-49
2023/03/24 06:49:43;;;;;;;5.82;5.32;;;;;;;11.87;100.00;97442.28;4167853;28;20224;-49
2023/03/24 06:51:45;;;;;;;4.88;4.47;;;;;;;11.86;100.00;97433.25;4168885;28;20648;-49
2023/03/24 06:53:47;;;;;;;5.18;4.88;;;;;;;11.86;100.00;97449.69;4169388;28;20944;-51
2023/03/24 06:55:49;;;;;;;4.93;4.60;;;;;;;11.86;100.00;97452.44;4169038;28;20613;-50
2023/03/24 06:57:51;;;;;;;5.05;4.65;;;;;;;11.85;100.00;97452.72;4181908;28;20217;-51
2023/03/24 06:59:53;;;;;;;4.88;4.47;;;;;;;11.86;100.00;97454.34;4157392;28;20300;-50
2023/03/24 07:01:55;;;;;;;5.65;5.25;;;;;;;11.87;100.00;97445.03;4166656;28;20204;-48
2023/03/24 07:03:57;;;;;;;4.97;4.55;;;;;;;11.84;100.00;97445.59;4184604;28;20219;-50
2023/03/24 07:05:59;;;;;;;5.78;5.38;;;;;;;11.84;100.00;97440.91;4167864;28;20295;-49
2023/03/24 07:08:01;;;;;;;6.82;5.32;;;;;;;11.86;100.00;97443.38;4166751;28;20207;-50
2023/03/24 07:10:06;;;;;;;5.20;4.70;;;;;;;11.82;100.00;97448.63;4157170;28;20347;-51
2023/03/24 07:12:08;;;;;;;5.80;5.40;;;;;;;11.81;100.00;97457.13;4169981;28;20259;-50
2023/03/24 07:14:10;;;;;;;6.13;5.70;;;;;;;11.82;100.00;97454.09;4171740;28;20823;-49
2023/03/24 07:16:11;;;;;;;6.40;5.90;;;;;;;11.83;100.00;97458.47;4173225;28;20761;-51
2023/03/24 07:18:13;;;;;;;5.97;5.57;;;;;;;11.80;100.00;97461.78;4170313;28;20659;-49
2023/03/24 07:20:15;;;;;;;5.85;4.70;;;;;;;11.87;100.00;97455.97;4171323;28;20212;-51
2023/03/24 07:22:17;;;;;;;6.07;5.50;;;;;;;11.88;100.00;97463.09;4169294;28;20240;-49
2023/03/24 07:24:19;;;;;;;6.45;5.95;;;;;;;11.85;100.00;97450.78;4173378;28;20267;-50
2023/03/24 07:26:21;;;;;;;5.97;5.57;;;;;;;11.83;100.00;97466.69;4172819;28;20634;-49
2023/03/24 07:28:23;;;;;;;7.82;5.55;;;;;;;11.77;100.00;97470.56;4170190;28;20609;-50
2023/03/24 07:30:25;;;;;;;6.63;6.13;;;;;;;11.73;100.00;97477.75;4174908;28;20681;-50
2023/03/24 07:32:41;;;;;;;5.82;5.28;;;;;;;11.74;100.00;97473.88;4177931;28;20249;-49
2023/03/24 07:34:45;;;;;;;6.68;6.18;;;;;;;11.76;100.00;97477.16;4169443;28;20232;-50
2023/03/24 07:36:47;;;;;;;6.03;5.53;;;;;;;11.77;100.00;97486.22;4168208;28;20247;-49
2023/03/24 07:38:49;;;;;;;5.45;4.95;;;;;;;11.83;100.00;97480.41;4169005;28;20212;-49
2023/03/24 07:40:51;;;;;;;5.93;5.53;;;;;;;11.87;100.00;97484.22;4169209;28;20200;-50
2023/03/24 07:42:53;;;;;;;5.82;4.93;;;;;;;11.88;100.00;97488.59;4176267;28;20607;-49
2023/03/24 07:44:55;;;;;;;5.03;4.72;;;;;;;11.97;100.00;97484.16;4160746;28;20244;-48
2023/03/24 07:47:10;;;;;;;5.05;4.65;;;;;;;12.01;100.00;97485.22;4152762;28;20212;-49
2023/03/24 07:49:14;;;;;;;4.97;4.63;;;;;;;12.03;100.00;97485.75;4160305;28;20295;-49
2023/03/24 07:51:20;;;;;;;4.82;4.53;;;;;;;12.08;100.00;97479.41;4158072;28;20659;-49
2023/03/24 07:53:22;;;;;;;4.22;3.92;;;;;;;12.03;100.00;97487.69;4184869;28;20239;-49
2023/03/24 07:55:25;;;;;;;5.57;5.22;;;;;;;12.01;100.00;97490.72;4183421;28;20219;-50
2023/03/24 07:57:27;;;;;;;4.30;4.00;;;;;;;12.03;100.00;97493.97;4177282;28;20204;-48
2023/03/24 07:59:29;;;;;;;3.65;3.35;;;;;;;12.02;100.00;97486.88;4176910;28;20239;-49
2023/03/24 08:01:37;;;;;;;4.03;3.72;;;;;;;11.99;100.00;97498.41;4168387;28;20212;-49
2023/03/24 08:03:40;;;;;;;3.63;3.33;;;;;;;11.95;100.00;97500.06;4168091;28;20231;-49
2023/03/24 08:05:43;;;;;;;4.03;3.63;;;;;;;11.92;100.00;97491.59;4172639;28;20208;-49
2023/03/24 08:07:52;;;;;;;4.32;4.03;;;;;;;11.92;100.00;97494.34;4171974;28;21015;-49
2023/03/24 08:10:05;;;;;;;4.85;3.30;;;;;;;11.92;100.00;97492.41;4199723;28;20608;-50
2023/03/24 08:12:09;;;;;;;4.88;4.45;;;;;;;11.89;100.00;97490.25;4170364;28;20247;-49
2023/03/24 08:14:21;;;;;;;4.03;3.72;;;;;;;11.93;100.00;97488.56;4159808;28;20707;-49
2023/03/24 08:16:26;;;;;;;4.13;3.80;;;;;;;11.96;100.00;97493.47;4176023;28;20798;-49
2023/03/24 08:18:30;;;;;;;4.93;4.50;;;;;;;11.97;100.00;97488.84;4169497;28;20208;-48
2023/03/24 08:20:32;;;;;;;5.78;4.75;;;;;;;11.96;100.00;97490.75;4159968;28;20197;-49
2023/03/24 08:22:36;;;;;;;4.90;4.18;;;;;;;11.95;100.00;97488.28;4167046;28;20208;-49
2023/03/24 08:24:38;;;;;;;4.30;4.00;;;;;;;11.98;100.00;97487.72;4176081;28;20262;-49
2023/03/24 08:26:45;;;;;;;4.32;3.92;;;;;;;11.97;100.00;97497.84;4172296;28;20278;-49
2023/03/24 08:28:48;;;;;;;4.30;4.00;;;;;;;11.97;100.00;97500.59;4171011;28;20806;-51
2023/03/24 08:30:50;;;;;;;4.53;4.18;;;;;;;11.93;100.00;97494.06;4151463;28;20228;-47
2023/03/24 08:32:58;;;;;;;2.92;2.72;;;;;;;11.91;100.00;97493.50;4186767;28;20211;-51
2023/03/24 08:35:07;;;;;;;3.75;3.22;;;;;;;11.92;100.00;97495.13;4168970;28;20220;-48
2023/03/24 08:37:10;;;;;;;3.38;3.13;;;;;;;11.98;100.00;97502.22;4174609;28;20203;-50
2023/03/24 08:39:14;;;;;;;3.63;3.35;;;;;;;11.94;100.00;97512.16;4174786;28;20298;-49
2023/03/24 08:41:16;;;;;;;3.80;3.53;;;;;;;11.98;100.00;97499.50;4183896;28;20600;-50
2023/03/24 08:43:29;;;;;;;3.40;3.13;;;;;;;12.03;100.00;97499.47;4174449;28;20208;-48
2023/03/24 08:45:31;;;;;;;4.75;2.80;;;;;;;12.11;100.00;97507.09;4168303;28;20226;-49
2023/03/24 08:47:35;;;;;;;2.97;2.78;;;;;;;12.13;100.00;97499.41;4168653;28;20243;-50
2023/03/24 08:49:37;;;;;;;3.15;2.85;;;;;;;12.18;100.00;97499.34;4169414;28;20281;-49
2023/03/24 08:51:40;;;;;;;3.35;3.10;;;;;;;12.23;100.00;97499.31;4169861;28;20212;-49
2023/03/24 08:53:43;;;;;;;2.75;2.55;;;;;;;12.33;100.00;97503.91;4167360;28;20340;-51
2023/03/24 08:55:45;;;;;;;2.47;2.28;;;;;;;12.31;100.00;97509.69;4168049;28;20212;-49
2023/03/24 08:57:49;;;;;;;2.70;2.50;;;;;;;12.35;100.00;97513.50;4185157;28;20286;-49
2023/03/24 08:59:51;;;;;;;10.88;2.35;;;;;;;12.34;100.00;97500.91;4175795;28;20246;-49
2023/03/24 09:01:58;;;;;;;2.17;2.08;;;;;;;12.32;100.00;97525.06;4159536;28;20228;-49
2023/03/24 09:04:00;;;;;;;5.68;2.58;;;;;;;12.36;100.00;97517.88;4174838;28;20228;-49
2023/03/24 09:06:03;;;;;;;3.25;1.98;;;;;;;12.26;100.00;97526.22;4168197;28;20299;-49
2023/03/24 09:08:16;;;;;;;2.85;2.50;;;;;;;12.22;100.00;97530.59;4168297;28;20207;-50
2023/03/24 09:10:22;;;;;;;2.65;2.45;;;;;;;12.17;100.00;97522.41;4169988;28;20223;-50
2023/03/24 09:12:24;;;;;;;2.53;2.33;;;;;;;12.16;100.00;97512.53;4158175;28;20212;-50
2023/03/24 09:14:26;;;;;;;2.70;2.50;;;;;;;12.22;100.00;97524.28;4158287;28;20221;-48
2023/03/24 09:16:29;;;;;;;2.65;2.53;;;;;;;12.12;100.00;97530.66;4170739;28;20208;-48
2023/03/24 09:18:31;;;;;;;5.55;2.90;;;;;;;12.11;100.00;97529.03;4168117;28;20211;-48
2023/03/24 09:20:46;;;;;;;2.38;2.22;;;;;;;12.03;100.00;97526.09;4174125;28;20282;-48
2023/03/24 09:22:48;;;;;;;2.88;2.67;;;;;;;11.95;100.00;97535.72;4152768;28;20228;-47
2023/03/24 09:24:50;;;;;;;2.47;2.08;;;;;;;11.97;100.00;97533.50;4152140;28;20662;-48
2023/03/24 09:26:56;;;;;;;3.03;2.72;;;;;;;11.97;100.00;97530.75;4169117;28;20290;-48
2023/03/24 09:29:08;;;;;;;2.58;2.38;;;;;;;11.94;100.00;97542.31;4168970;28;20208;-49
2023/03/24 09:31:10;;;;;;;2.85;2.60;;;;;;;11.90;100.00;97538.47;4169092;28;20223;-49
2023/03/24 09:33:13;;;;;;;3.30;3.00;;;;;;;11.88;100.00;97551.66;4187279;28;20238;-48
2023/03/24 09:35:15;;;;;;;2.53;2.42;;;;;;;11.92;100.00;97547.22;4183193;28;20767;-49
2023/03/24 09:37:17;;;;;;;2.83;2.63;;;;;;;11.90;100.00;97549.44;4168674;28;20629;-49
2023/03/24 09:39:19;;;;;;;3.13;2.83;;;;;;;11.92;100.00;97552.72;4167147;28;20717;-49
2023/03/24 09:41:31;;;;;;;2.35;2.20;;;;;;;11.93;100.00;97548.88;4168740;28;20641;-49
2023/03/24 09:43:45;;;;;;;2.58;2.38;;;;;;;11.89;100.00;97547.81;4180997;28;20210;-49
2023/03/24 09:45:58;;;;;;;2.85;2.63;;;;;;;11.93;100.00;97554.38;4166061;28;20674;-51